Time;durP1;ratioP1;P1;durP2;ratioP2;P2;SDS_P1;SDS_P2;PMS_P1;PMS_P2;Temp;Humidity;BMP_temperature;BMP_pressure;BME280_temperature;BME280_humidity;BME280_pressure;Samples;Min_cycle;Max_cycle;Signal;HPM_P1;HPM_P2
2023/12/23 00:01:34;;;;;;;4.82;1.67;;;;;;;8.12;100.00;100946.13;5076148;28;20185;-93
2023/12/23 00:04:01;;;;;;;5.43;1.67;;;;;;;8.08;100.00;100932.00;5076398;28;20028;-92
2023/12/23 00:06:26;;;;;;;8.40;2.00;;;;;;;8.17;100.00;100965.53;5076475;28;20113;-92
2023/12/23 00:08:51;;;;;;;5.90;1.70;;;;;;;8.18;100.00;100965.59;5058449;28;20504;-92
2023/12/23 00:11:17;;;;;;;6.72;2.00;;;;;;;8.21;100.00;100946.31;5041576;28;20488;-92
2023/12/23 00:13:42;;;;;;;6.03;1.85;;;;;;;8.16;100.00;100943.59;5058625;28;20126;-94
2023/12/23 00:16:07;;;;;;;7.20;1.98;;;;;;;8.12;100.00;100919.81;5041943;28;20119;-95
2023/12/23 00:18:33;;;;;;;6.72;2.00;;;;;;;8.22;100.00;100941.09;5041751;28;20098;-94
2023/12/23 00:20:58;;;;;;;6.80;1.65;;;;;;;8.21;100.00;100922.63;5075655;28;20067;-93
2023/12/23 00:23:24;;;;;;;6.43;2.00;;;;;;;8.28;100.00;100933.34;5041887;28;20476;-93
2023/12/23 00:25:49;;;;;;;6.68;2.20;;;;;;;8.22;100.00;100920.06;5076141;28;20040;-93
2023/12/23 00:28:14;;;;;;;6.03;1.77;;;;;;;8.17;100.00;100916.41;5041653;28;20380;-93
2023/12/23 00:30:40;;;;;;;8.77;1.88;;;;;;;8.22;100.00;100933.22;5041493;28;20369;-92
2023/12/23 00:33:08;;;;;;;4.35;1.85;;;;;;;8.29;100.00;100919.31;5057349;28;20031;-92
2023/12/23 00:35:34;;;;;;;7.05;1.92;;;;;;;8.29;100.00;100913.16;5081026;28;20439;-92
2023/12/23 00:37:59;;;;;;;6.75;1.98;;;;;;;8.33;100.00;100922.00;5058812;28;20033;-92
2023/12/23 00:40:25;;;;;;;9.40;2.08;;;;;;;8.09;100.00;100878.50;5041029;28;20036;-92
2023/12/23 00:42:50;;;;;;;6.80;1.90;;;;;;;8.23;100.00;100927.09;5075816;28;20560;-93
2023/12/23 00:45:16;;;;;;;6.18;1.90;;;;;;;8.30;100.00;100935.97;5075449;28;20090;-91
2023/12/23 00:47:41;;;;;;;5.28;2.00;;;;;;;8.06;100.00;100881.09;5075166;28;20025;-93
2023/12/23 00:50:07;;;;;;;5.60;2.10;;;;;;;8.27;100.00;100907.88;5057305;28;20169;-93
2023/12/23 00:52:32;;;;;;;6.70;2.00;;;;;;;8.29;100.00;100902.63;5040881;28;20032;-92
2023/12/23 00:54:58;;;;;;;5.43;2.03;;;;;;;8.22;100.00;100875.31;5057384;28;20064;-92
2023/12/23 00:57:23;;;;;;;7.40;2.08;;;;;;;8.39;100.00;100901.97;5075304;28;20044;-92
2023/12/23 00:59:49;;;;;;;9.32;2.20;;;;;;;8.31;100.00;100887.75;5074989;28;20029;-92
2023/12/23 01:02:14;;;;;;;9.02;2.45;;;;;;;8.34;100.00;100879.91;5074856;28;20036;-92
2023/12/23 01:04:40;;;;;;;6.18;2.25;;;;;;;8.32;100.00;100871.09;5057227;28;20066;-92
2023/12/23 01:07:05;;;;;;;9.35;2.45;;;;;;;8.47;100.00;100889.84;5075056;28;20043;-93
2023/12/23 01:09:31;;;;;;;6.55;2.17;;;;;;;8.42;100.00;100874.84;5056869;28;20469;-93
2023/12/23 01:11:56;;;;;;;6.25;2.40;;;;;;;8.49;100.00;100880.25;5057041;28;20534;-93
2023/12/23 01:14:22;;;;;;;6.10;2.10;;;;;;;8.47;100.00;100873.19;5074642;28;20109;-91
2023/12/23 01:16:47;;;;;;;6.97;2.15;;;;;;;8.43;100.00;100874.84;5074802;28;20029;-91
2023/12/23 01:19:13;;;;;;;8.50;2.22;;;;;;;8.57;100.00;100893.59;5074510;28;20492;-91
2023/12/23 01:21:38;;;;;;;8.07;2.28;;;;;;;8.53;100.00;100876.84;5074524;28;20036;-92
2023/12/23 01:24:04;;;;;;;11.40;2.42;;;;;;;8.60;100.00;100872.56;5040252;28;20388;-91
2023/12/23 01:26:30;;;;;;;9.52;2.47;;;;;;;8.61;100.00;100869.09;5056675;28;20154;-92
2023/12/23 01:29:00;;;;;;;10.13;2.50;;;;;;;8.63;100.00;100869.97;5056568;28;20044;-91
2023/12/23 01:31:28;;;;;;;9.40;2.58;;;;;;;8.70;100.00;100863.09;5057298;28;20376;-93
2023/12/23 01:33:56;;;;;;;9.10;2.42;;;;;;;8.74;100.00;100865.81;5056909;28;20060;-92
2023/12/23 01:36:21;;;;;;;12.95;2.53;;;;;;;8.80;100.00;100861.50;5074410;28;20039;-91
2023/12/23 01:38:46;;;;;;;12.45;2.60;;;;;;;8.88;100.00;100860.78;5074337;28;20037;-91
2023/12/23 01:41:12;;;;;;;12.32;2.83;;;;;;;8.89;100.00;100859.03;5039919;28;20468;-92
2023/12/23 01:43:37;;;;;;;16.00;2.83;;;;;;;8.93;100.00;100852.97;5074267;28;20032;-93
2023/12/23 01:46:03;;;;;;;8.32;2.47;;;;;;;8.99;100.00;100853.06;5038689;28;20111;-91
2023/12/23 01:48:34;;;;;;;7.95;2.83;;;;;;;8.98;100.00;100840.75;5074011;28;20086;-91
2023/12/23 01:50:59;;;;;;;11.45;2.72;;;;;;;9.05;100.00;100847.03;5073761;28;20063;-92
2023/12/23 01:53:26;;;;;;;9.93;3.28;;;;;;;9.04;100.00;100843.50;5056135;28;20118;-92
2023/12/23 01:55:52;;;;;;;9.40;2.55;;;;;;;8.96;100.00;100824.03;5074535;28;20035;-91
2023/12/23 01:58:19;;;;;;;10.68;2.55;;;;;;;9.10;100.00;100846.22;5056521;28;20029;-91
2023/12/23 02:00:47;;;;;;;11.52;2.40;;;;;;;9.05;100.00;100834.72;5074205;28;20392;-91
2023/12/23 02:03:13;;;;;;;9.63;2.92;;;;;;;9.04;100.00;100825.06;5074336;28;20036;-91
2023/12/23 02:05:39;;;;;;;11.73;2.70;;;;;;;9.17;100.00;100842.84;5056431;28;20037;-92
2023/12/23 02:08:05;;;;;;;8.80;2.40;;;;;;;9.18;100.00;100835.81;5074428;28;20039;-89
2023/12/23 02:10:30;;;;;;;10.15;2.47;;;;;;;9.13;100.00;100832.22;5055817;28;20032;-90
2023/12/23 02:13:23;;;;;;;10.00;2.30;;;;;;;9.21;100.00;100843.78;5074166;28;20392;-90
2023/12/23 02:15:51;;;;;;;8.80;2.13;;;;;;;9.10;100.00;100827.78;5074428;28;20107;-90
2023/12/23 02:18:16;;;;;;;9.68;2.28;;;;;;;9.19;100.00;100832.31;5056278;28;20033;-92
2023/12/23 02:20:42;;;;;;;9.73;2.42;;;;;;;9.17;100.00;100828.78;5073650;28;20056;-92
2023/12/23 02:23:07;;;;;;;8.38;2.63;;;;;;;8.97;100.00;100802.09;5074225;28;20041;-91
2023/12/23 02:25:33;;;;;;;10.27;2.50;;;;;;;9.04;100.00;100825.06;5056273;28;20040;-92
2023/12/23 02:28:05;;;;;;;8.88;2.30;;;;;;;9.09;100.00;100831.28;5073996;28;20449;-91
2023/12/23 02:30:33;;;;;;;10.43;2.42;;;;;;;9.01;100.00;100817.09;5073686;28;20401;-91
2023/12/23 02:32:59;;;;;;;13.15;2.60;;;;;;;9.05;100.00;100836.47;5073790;28;20044;-91
2023/12/23 02:35:24;;;;;;;11.38;2.70;;;;;;;9.03;100.00;100824.13;5073996;28;20385;-92
2023/12/23 02:37:50;;;;;;;10.85;2.40;;;;;;;9.06;100.00;100825.06;5073597;28;20077;-92
2023/12/23 02:40:16;;;;;;;11.63;2.60;;;;;;;9.08;100.00;100821.59;5056311;28;20036;-92
2023/12/23 02:42:41;;;;;;;10.45;2.50;;;;;;;9.03;100.00;100804.81;5055848;28;20028;-91
2023/12/23 02:45:07;;;;;;;12.00;2.40;;;;;;;8.99;100.00;100787.16;5073677;28;20024;-93
2023/12/23 02:47:32;;;;;;;10.25;2.92;;;;;;;9.00;100.00;100789.84;5055268;28;20480;-92
2023/12/23 02:49:57;;;;;;;13.40;2.85;;;;;;;9.12;100.00;100811.97;5055187;28;20094;-92
2023/12/23 02:52:23;;;;;;;14.77;2.83;;;;;;;9.11;100.00;100795.28;5073313;28;20415;-91
2023/12/23 02:54:48;;;;;;;9.52;2.25;;;;;;;9.14;100.00;100803.25;5055223;28;20033;-90
2023/12/23 02:57:14;;;;;;;11.00;2.50;;;;;;;9.15;100.00;100802.38;5072989;28;20457;-90
2023/12/23 02:59:39;;;;;;;9.40;2.30;;;;;;;9.15;100.00;100806.75;5072696;28;20396;-90
2023/12/23 03:02:04;;;;;;;9.68;2.72;;;;;;;9.07;100.00;100761.81;5055234;28;20032;-92
2023/12/23 03:04:31;;;;;;;6.68;2.25;;;;;;;9.15;100.00;100798.84;5038712;28;20048;-92
2023/12/23 03:06:56;;;;;;;13.43;2.80;;;;;;;9.18;100.00;100794.53;5055314;28;20037;-91
2023/12/23 03:09:22;;;;;;;7.85;2.10;;;;;;;9.19;100.00;100776.94;5072993;28;20029;-92
2023/12/23 03:11:47;;;;;;;9.90;2.50;;;;;;;9.09;100.00;100760.13;5073079;28;20067;-90
2023/12/23 03:14:13;;;;;;;12.13;2.65;;;;;;;9.21;100.00;100772.59;5054708;28;20123;-91
2023/12/23 03:16:38;;;;;;;10.38;2.50;;;;;;;9.17;100.00;100774.31;5054977;28;20063;-92
2023/12/23 03:19:04;;;;;;;11.57;2.67;;;;;;;9.23;100.00;100773.50;5054942;28;20033;-92
2023/12/23 03:21:30;;;;;;;9.70;2.35;;;;;;;9.22;100.00;100777.00;5072646;28;20063;-91
2023/12/23 03:23:56;;;;;;;9.75;2.58;;;;;;;9.24;100.00;100780.53;5072773;28;20036;-91
2023/12/23 03:26:21;;;;;;;10.45;2.50;;;;;;;9.18;100.00;100762.00;5072579;28;20465;-92
2023/12/23 03:28:47;;;;;;;10.52;2.42;;;;;;;9.29;100.00;100781.47;5072491;28;20037;-91
2023/12/23 03:31:12;;;;;;;11.43;2.30;;;;;;;9.32;100.00;100791.19;5072554;28;20060;-93
2023/12/23 03:33:39;;;;;;;12.05;2.80;;;;;;;9.31;100.00;100779.78;5054706;28;20479;-92
2023/12/23 03:36:05;;;;;;;11.05;2.70;;;;;;;9.36;100.00;100772.81;5072720;28;20045;-92
2023/12/23 03:38:30;;;;;;;8.32;2.42;;;;;;;9.33;100.00;100772.75;5072801;28;20036;-92
2023/12/23 03:40:56;;;;;;;10.77;2.50;;;;;;;9.31;100.00;100749.88;5038139;28;20032;-93
2023/12/23 03:43:21;;;;;;;10.27;2.33;;;;;;;9.38;100.00;100764.91;5038022;28;20037;-93
2023/12/23 03:45:47;;;;;;;10.77;2.88;;;;;;;9.35;100.00;100759.63;5072720;28;20119;-92
2023/12/23 03:48:12;;;;;;;17.75;2.95;;;;;;;9.24;100.00;100739.22;5054816;28;20041;-92
2023/12/23 03:50:37;;;;;;;12.63;2.50;;;;;;;9.26;100.00;100750.69;5054660;28;20393;-92
2023/12/23 03:53:06;;;;;;;9.73;2.60;;;;;;;9.32;100.00;100759.56;5037809;28;20167;-92
2023/12/23 03:55:34;;;;;;;14.02;2.78;;;;;;;9.28;100.00;100753.34;5055360;28;20111;-93
2023/12/23 03:58:00;;;;;;;9.40;2.40;;;;;;;9.21;100.00;100740.97;5072772;28;20036;-93
2023/12/23 04:00:26;;;;;;;9.80;3.25;;;;;;;9.26;100.00;100748.06;5072391;28;20132;-92
2023/12/23 04:02:52;;;;;;;11.25;2.83;;;;;;;9.15;100.00;100730.31;5055049;28;20039;-93
2023/12/23 04:05:17;;;;;;;9.63;2.58;;;;;;;9.32;100.00;100752.53;5054648;28;20115;-92
2023/12/23 04:07:47;;;;;;;11.80;2.80;;;;;;;9.32;100.00;100747.25;5073295;28;20024;-92
2023/12/23 04:10:14;;;;;;;13.82;2.90;;;;;;;9.07;100.00;100709.09;5058287;28;20041;-93
2023/12/23 04:12:40;;;;;;;10.93;2.70;;;;;;;9.31;100.00;100740.22;5076185;28;20107;-92
2023/12/23 04:15:06;;;;;;;12.60;2.92;;;;;;;9.22;100.00;100730.44;5076294;28;20067;-93
2023/12/23 04:17:32;;;;;;;8.65;2.47;;;;;;;9.30;100.00;100746.38;5075996;28;20381;-93
2023/12/23 04:19:57;;;;;;;9.70;2.70;;;;;;;9.34;100.00;100744.66;5058014;28;20036;-93
2023/12/23 04:22:22;;;;;;;9.73;2.53;;;;;;;9.33;100.00;100741.13;5075404;28;20033;-92
2023/12/23 04:24:48;;;;;;;15.40;3.17;;;;;;;9.33;100.00;100735.84;5075906;28;20028;-92
2023/12/23 04:27:13;;;;;;;8.48;2.78;;;;;;;9.25;100.00;100717.31;5057788;28;20047;-92
2023/12/23 04:29:39;;;;;;;12.30;3.03;;;;;;;9.35;100.00;100731.50;5075799;28;20028;-92
2023/12/23 04:32:06;;;;;;;7.78;2.50;;;;;;;9.17;100.00;100700.50;5075473;28;20435;-92
2023/12/23 04:34:32;;;;;;;14.88;3.00;;;;;;;9.27;100.00;100707.66;5075610;28;20449;-92
2023/12/23 04:36:57;;;;;;;14.60;2.60;;;;;;;9.21;100.00;100686.47;5075648;28;20056;-93
2023/12/23 04:39:22;;;;;;;11.63;3.20;;;;;;;9.27;100.00;100697.09;5057745;28;20039;-92
2023/12/23 04:41:48;;;;;;;12.25;2.88;;;;;;;9.23;100.00;100712.84;5075604;28;20515;-91
2023/12/23 04:44:14;;;;;;;7.68;2.60;;;;;;;9.32;100.00;100720.88;5041028;28;20039;-92
2023/12/23 04:46:41;;;;;;;12.73;3.10;;;;;;;9.26;100.00;100683.91;5075705;28;20111;-92
2023/12/23 04:49:07;;;;;;;9.90;2.72;;;;;;;9.23;100.00;100690.00;5075444;28;20032;-91
2023/12/23 04:51:32;;;;;;;9.38;2.45;;;;;;;9.22;100.00;100688.25;5075139;28;20093;-90
2023/12/23 04:53:58;;;;;;;12.70;2.47;;;;;;;9.10;100.00;100668.75;5075373;28;20044;-92
2023/12/23 04:56:25;;;;;;;7.97;2.42;;;;;;;9.21;100.00;100701.41;5075402;28;20174;-91
2023/12/23 04:58:51;;;;;;;10.50;2.47;;;;;;;9.26;100.00;100715.53;5075002;28;20033;-92
2023/12/23 05:01:16;;;;;;;17.30;3.70;;;;;;;9.22;100.00;100708.47;5057232;28;20044;-93
2023/12/23 05:03:42;;;;;;;15.38;3.00;;;;;;;9.18;100.00;100714.56;5074905;28;20029;-92
2023/12/23 05:06:07;;;;;;;9.30;2.40;;;;;;;8.95;100.00;100659.75;5075152;28;20093;-92
2023/12/23 05:08:33;;;;;;;9.05;2.75;;;;;;;9.16;100.00;100717.13;5057062;28;20047;-91
2023/12/23 05:10:59;;;;;;;9.40;2.33;;;;;;;9.11;100.00;100692.47;5075335;28;20028;-91
2023/12/23 05:13:24;;;;;;;11.25;2.55;;;;;;;9.16;100.00;100703.09;5074742;28;20025;-92
2023/12/23 05:15:50;;;;;;;5.93;2.33;;;;;;;9.18;100.00;100706.63;5075017;28;20051;-92
2023/12/23 05:18:16;;;;;;;9.68;2.50;;;;;;;9.17;100.00;100697.84;5056898;28;20037;-92
2023/12/23 05:20:41;;;;;;;9.68;2.70;;;;;;;9.17;100.00;100703.13;5074240;28;20028;-92
2023/12/23 05:23:07;;;;;;;12.10;2.97;;;;;;;9.01;100.00;100641.38;5056753;28;20094;-91
2023/12/23 05:25:33;;;;;;;8.13;2.33;;;;;;;9.18;100.00;100681.16;5056864;28;20036;-92
2023/12/23 05:27:58;;;;;;;9.60;2.55;;;;;;;9.15;100.00;100677.59;5040412;28;20046;-92
2023/12/23 05:30:24;;;;;;;10.20;2.72;;;;;;;9.20;100.00;100689.06;5074447;28;20075;-92
2023/12/23 05:32:49;;;;;;;8.23;2.60;;;;;;;9.16;100.00;100685.50;5056916;28;20043;-91
2023/12/23 05:35:14;;;;;;;10.88;2.83;;;;;;;9.13;100.00;100674.94;5056877;28;20032;-92
2023/12/23 05:37:40;;;;;;;10.20;2.70;;;;;;;9.19;100.00;100661.84;5074576;28;20060;-91
2023/12/23 05:40:06;;;;;;;12.95;2.90;;;;;;;9.20;100.00;100687.31;5074413;28;20032;-92
2023/12/23 05:42:31;;;;;;;10.27;2.90;;;;;;;9.09;100.00;100651.16;5056588;28;20094;-92
2023/12/23 05:44:56;;;;;;;11.00;2.80;;;;;;;9.07;100.00;100645.84;5056892;28;20036;-92
2023/12/23 05:47:23;;;;;;;13.57;2.80;;;;;;;9.15;100.00;100670.56;5074479;28;20394;-93
2023/12/23 05:49:48;;;;;;;11.95;2.70;;;;;;;9.05;100.00;100642.31;5056395;28;20477;-91
2023/12/23 05:52:14;;;;;;;9.30;2.40;;;;;;;9.25;100.00;100674.22;5074347;28;20031;-91
2023/12/23 05:54:39;;;;;;;13.20;2.75;;;;;;;9.31;100.00;100682.22;5056444;28;20036;-91
2023/12/23 05:57:04;;;;;;;9.02;2.65;;;;;;;9.31;100.00;100687.47;5074195;28;20362;-91
2023/12/23 05:59:30;;;;;;;15.73;2.97;;;;;;;9.29;100.00;100681.28;5074222;28;20035;-91
2023/12/23 06:01:55;;;;;;;14.20;3.00;;;;;;;9.31;100.00;100686.59;5074082;28;20132;-91
2023/12/23 06:04:21;;;;;;;10.70;2.78;;;;;;;9.31;100.00;100683.97;5056081;28;20041;-91
2023/12/23 06:06:46;;;;;;;7.75;2.70;;;;;;;9.31;100.00;100691.88;5039517;28;20039;-92
2023/12/23 06:09:11;;;;;;;12.57;2.75;;;;;;;9.28;100.00;100679.53;5055712;28;20487;-91
2023/12/23 06:11:37;;;;;;;13.27;2.70;;;;;;;9.35;100.00;100691.06;5073498;28;20033;-91
2023/12/23 06:14:02;;;;;;;10.77;2.97;;;;;;;9.33;100.00;100688.38;5073645;28;20029;-93
2023/12/23 06:16:28;;;;;;;13.48;3.22;;;;;;;9.23;100.00;100658.38;5056373;28;20033;-93
2023/12/23 06:18:53;;;;;;;15.05;2.85;;;;;;;9.12;100.00;100627.47;5055998;28;20412;-92
2023/12/23 06:21:19;;;;;;;9.45;2.70;;;;;;;9.34;100.00;100676.09;5073543;28;20032;-92
2023/12/23 06:23:44;;;;;;;8.52;2.40;;;;;;;9.34;100.00;100687.53;5055928;28;20422;-92
2023/12/23 06:26:10;;;;;;;11.10;3.00;;;;;;;9.31;100.00;100678.69;5073631;28;20028;-93
2023/12/23 06:28:38;;;;;;;12.02;3.30;;;;;;;9.29;100.00;100678.66;5073828;28;20033;-92
2023/12/23 06:31:03;;;;;;;13.75;2.83;;;;;;;9.35;100.00;100683.16;5055976;28;20032;-92
2023/12/23 06:33:29;;;;;;;13.77;3.00;;;;;;;9.30;100.00;100685.72;5073337;28;20081;-91
2023/12/23 06:35:54;;;;;;;9.57;3.00;;;;;;;9.29;100.00;100657.56;5039138;28;20370;-91
2023/12/23 06:38:20;;;;;;;13.18;2.88;;;;;;;9.26;100.00;100663.69;5038883;28;20124;-91
2023/12/23 06:40:45;;;;;;;14.65;2.70;;;;;;;9.38;100.00;100697.25;5039107;28;20032;-92
2023/12/23 06:43:10;;;;;;;13.90;3.30;;;;;;;9.35;100.00;100701.59;5055641;28;20045;-91
2023/12/23 06:45:36;;;;;;;10.40;2.80;;;;;;;9.23;100.00;100662.75;5073418;28;20047;-91
2023/12/23 06:48:01;;;;;;;12.90;2.83;;;;;;;9.33;100.00;100669.03;5073278;28;20534;-90
2023/12/23 06:50:27;;;;;;;11.63;3.17;;;;;;;9.21;100.00;100649.56;5072809;28;20392;-92
2023/12/23 06:52:52;;;;;;;13.25;3.13;;;;;;;9.36;100.00;100679.63;5073315;28;20028;-93
2023/12/23 06:55:17;;;;;;;11.43;2.95;;;;;;;9.23;100.00;100660.13;5055436;28;20032;-92
2023/12/23 06:57:43;;;;;;;12.32;3.25;;;;;;;9.26;100.00;100668.97;5055317;28;20029;-91
2023/12/23 07:00:09;;;;;;;9.63;2.58;;;;;;;9.27;100.00;100669.84;5072892;28;20072;-91
2023/12/23 07:02:34;;;;;;;10.00;2.95;;;;;;;9.34;100.00;100671.72;5055022;28;20448;-91
2023/12/23 07:05:00;;;;;;;12.05;2.63;;;;;;;9.31;100.00;100658.47;5055223;28;20048;-91
2023/12/23 07:07:25;;;;;;;13.43;2.70;;;;;;;9.31;100.00;100655.84;5073195;28;20118;-89
2023/12/23 07:09:50;;;;;;;7.05;2.25;;;;;;;9.34;100.00;100661.16;5055222;28;20062;-91
2023/12/23 07:12:16;;;;;;;11.23;2.80;;;;;;;9.43;100.00;100669.19;5072849;28;20110;-91
2023/12/23 07:14:41;;;;;;;9.70;2.65;;;;;;;9.28;100.00;100647.88;5055178;28;20417;-92
2023/12/23 07:17:07;;;;;;;12.98;3.35;;;;;;;9.41;100.00;100673.53;5055094;28;20124;-91
2023/12/23 07:19:32;;;;;;;9.35;2.50;;;;;;;9.42;100.00;100662.16;5073173;28;20043;-91
2023/12/23 07:21:58;;;;;;;8.80;2.58;;;;;;;9.25;100.00;100661.06;5054693;28;20037;-91
2023/12/23 07:24:24;;;;;;;10.82;3.00;;;;;;;9.39;100.00;100675.28;5073385;28;20060;-91
2023/12/23 07:26:50;;;;;;;11.60;2.50;;;;;;;9.47;100.00;100678.03;5055322;28;20047;-92
2023/12/23 07:29:16;;;;;;;16.63;2.90;;;;;;;9.48;100.00;100679.78;5073311;28;20032;-92
2023/12/23 07:31:42;;;;;;;8.82;2.50;;;;;;;9.40;100.00;100681.44;5072983;28;20492;-92
2023/12/23 07:34:08;;;;;;;11.98;2.70;;;;;;;9.39;100.00;100670.00;5073052;28;20029;-92
2023/12/23 07:36:33;;;;;;;10.18;2.60;;;;;;;9.50;100.00;100684.19;5055246;28;20490;-92
2023/12/23 07:38:59;;;;;;;13.23;2.67;;;;;;;9.55;100.00;100700.13;5072973;28;20087;-92
2023/12/23 07:41:24;;;;;;;10.18;2.40;;;;;;;9.61;100.00;100700.19;5038457;28;20112;-93
2023/12/23 07:43:50;;;;;;;10.98;2.58;;;;;;;9.57;100.00;100681.66;5075481;28;20107;-92
2023/12/23 07:46:18;;;;;;;13.30;3.10;;;;;;;9.64;100.00;100689.66;5058927;28;20039;-91
2023/12/23 07:48:43;;;;;;;6.05;2.20;;;;;;;9.54;100.00;100664.03;5076400;28;20473;-90
2023/12/23 07:51:12;;;;;;;12.13;2.58;;;;;;;9.68;100.00;100670.38;5076529;28;20051;-93
2023/12/23 07:53:37;;;;;;;10.95;2.80;;;;;;;9.68;100.00;100680.94;5076688;28;20477;-91
2023/12/23 07:56:03;;;;;;;10.50;2.65;;;;;;;9.71;100.00;100665.09;5076676;28;20077;-92
2023/12/23 07:58:28;;;;;;;16.98;3.40;;;;;;;9.72;100.00;100671.25;5075958;28;20036;-91
2023/12/23 08:00:54;;;;;;;11.10;2.47;;;;;;;9.65;100.00;100670.31;5058180;28;20056;-90
2023/12/23 08:03:19;;;;;;;11.07;2.58;;;;;;;9.64;100.00;100675.59;5076235;28;20036;-91
2023/12/23 08:05:45;;;;;;;6.35;2.28;;;;;;;9.78;100.00;100697.75;5076278;28;20062;-91
2023/12/23 08:08:10;;;;;;;7.25;2.60;;;;;;;9.71;100.00;100674.78;5058179;28;20025;-90
2023/12/23 08:10:39;;;;;;;12.40;3.35;;;;;;;9.72;100.00;100681.81;5045773;28;20111;-92
2023/12/23 08:13:05;;;;;;;7.03;2.30;;;;;;;9.78;100.00;100688.06;5062558;28;20078;-91
2023/12/23 08:15:30;;;;;;;9.85;2.35;;;;;;;9.80;100.00;100688.06;5079420;28;20040;-91
2023/12/23 08:17:56;;;;;;;11.48;2.60;;;;;;;9.81;100.00;100696.88;5059823;28;20361;-91
2023/12/23 08:20:21;;;;;;;4.97;2.20;;;;;;;9.68;100.00;100667.72;5058731;28;20040;-91
2023/12/23 08:22:48;;;;;;;9.52;2.28;;;;;;;9.57;100.00;100652.63;5057553;28;20091;-88
2023/12/23 08:25:14;;;;;;;10.40;2.60;;;;;;;9.90;100.00;100702.28;5075467;28;20033;-92
2023/12/23 08:27:40;;;;;;;12.27;2.60;;;;;;;9.94;100.00;100704.97;5057375;28;20024;-88
2023/12/23 08:30:07;;;;;;;8.15;2.20;;;;;;;9.89;100.00;100696.13;5075448;28;20035;-87
2023/12/23 08:32:33;;;;;;;10.00;2.40;;;;;;;9.94;100.00;100696.16;5075435;28;20033;-91
2023/12/23 08:34:59;;;;;;;7.97;2.30;;;;;;;9.94;100.00;100704.09;5041243;28;20047;-89
2023/12/23 08:37:24;;;;;;;9.25;2.17;;;;;;;9.95;100.00;100695.28;5075328;28;20431;-88
2023/12/23 08:39:50;;;;;;;7.28;2.80;;;;;;;9.93;100.00;100692.63;5075236;28;20024;-87
2023/12/23 08:42:15;;;;;;;10.05;2.30;;;;;;;9.99;100.00;100726.13;5040532;28;20028;-88
2023/12/23 08:44:41;;;;;;;9.85;2.47;;;;;;;9.96;100.00;100715.53;5074909;28;20078;-87
2023/12/23 08:47:06;;;;;;;7.53;2.30;;;;;;;9.98;100.00;100717.34;5057201;28;20032;-88
2023/12/23 08:49:32;;;;;;;7.63;2.45;;;;;;;10.01;100.00;100708.53;5075164;28;20032;-89
2023/12/23 08:51:57;;;;;;;7.60;2.20;;;;;;;10.01;100.00;100708.53;5074732;28;20514;-88
2023/12/23 08:54:22;;;;;;;8.45;2.30;;;;;;;10.02;100.00;100707.66;5058561;28;20037;-88
2023/12/23 08:56:48;;;;;;;9.40;2.38;;;;;;;9.94;100.00;100709.38;5057013;28;20028;-89
2023/12/23 08:59:13;;;;;;;10.40;2.38;;;;;;;10.03;100.00;100722.66;5074644;28;20033;-87
2023/12/23 09:01:39;;;;;;;8.95;2.20;;;;;;;10.03;100.00;100726.19;5074643;28;20055;-87
2023/12/23 09:04:04;;;;;;;13.60;2.80;;;;;;;9.99;100.00;100734.06;5074734;28;20059;-87
2023/12/23 09:06:29;;;;;;;11.50;2.45;;;;;;;9.97;100.00;100744.56;5075411;28;20531;-88
2023/12/23 09:08:57;;;;;;;10.77;2.40;;;;;;;9.94;100.00;100733.13;5075007;28;20024;-87
2023/12/23 09:11:23;;;;;;;6.43;2.38;;;;;;;9.88;100.00;100743.59;5074907;28;20481;-86
2023/12/23 09:13:48;;;;;;;10.48;2.60;;;;;;;9.85;100.00;100744.47;5074757;28;20511;-89
2023/12/23 09:16:14;;;;;;;14.27;2.95;;;;;;;9.78;100.00;100747.88;5075010;28;20029;-87
2023/12/23 09:18:39;;;;;;;8.05;2.33;;;;;;;9.63;100.00;100718.66;5074383;28;20032;-87
2023/12/23 09:21:05;;;;;;;10.95;2.55;;;;;;;9.46;100.00;100702.59;5056281;28;20033;-87
2023/12/23 09:23:30;;;;;;;9.20;2.40;;;;;;;9.61;100.00;100729.19;5079275;28;20550;-88
2023/12/23 09:25:55;;;;;;;11.10;2.33;;;;;;;9.67;100.00;100766.19;5074172;28;20068;-86
2023/12/23 09:28:21;;;;;;;9.35;2.53;;;;;;;9.66;100.00;100753.00;5074561;28;20459;-89
2023/12/23 09:30:47;;;;;;;9.40;2.25;;;;;;;9.65;100.00;100740.69;5074123;28;20079;-88
2023/12/23 09:33:12;;;;;;;10.52;2.30;;;;;;;9.63;100.00;100738.00;5074149;28;20036;-87
2023/12/23 09:35:38;;;;;;;13.18;2.65;;;;;;;9.58;100.00;100729.16;5074077;28;20078;-88
2023/12/23 09:38:03;;;;;;;7.18;2.25;;;;;;;9.65;100.00;100756.50;5080352;28;20088;-93
2023/12/23 09:40:29;;;;;;;9.52;2.40;;;;;;;9.67;100.00;100749.47;5058348;28;20033;-92
2023/12/23 09:42:54;;;;;;;8.23;2.20;;;;;;;9.66;100.00;100760.91;5058387;28;20040;-93
2023/12/23 09:45:21;;;;;;;7.63;2.28;;;;;;;9.66;100.00;100751.25;5082774;28;20047;-92
2023/12/23 09:47:46;;;;;;;9.02;2.20;;;;;;;9.76;100.00;100753.16;5057454;28;20035;-95
2023/12/23 09:50:12;;;;;;;7.05;2.10;;;;;;;9.72;100.00;100753.97;5074554;28;20036;-92
2023/12/23 09:52:39;;;;;;;9.98;2.60;;;;;;;9.73;100.00;100771.56;5039793;28;20032;-92
2023/12/23 09:55:09;;;;;;;9.60;2.38;;;;;;;9.69;100.00;100746.00;5056836;28;20078;-95
2023/12/23 09:57:35;;;;;;;9.30;2.55;;;;;;;9.76;100.00;100752.22;5056445;28;20032;-91
2023/12/23 10:00:01;;;;;;;10.00;2.22;;;;;;;9.79;100.00;100776.91;5039842;28;20187;-91
2023/12/23 10:02:26;;;;;;;9.13;2.40;;;;;;;9.77;100.00;100761.94;5077180;28;20538;-93
2023/12/23 10:04:52;;;;;;;11.70;2.20;;;;;;;9.89;100.00;100784.94;5057257;28;20388;-92
2023/12/23 10:07:17;;;;;;;8.25;2.10;;;;;;;9.88;100.00;100785.81;5056362;28;20044;-92
2023/12/23 10:09:43;;;;;;;8.18;2.30;;;;;;;9.91;100.00;100781.47;5056942;28;20041;-93
2023/12/23 10:12:08;;;;;;;11.35;2.50;;;;;;;9.93;100.00;100790.28;5075842;28;20586;-94
2023/12/23 10:14:34;;;;;;;11.40;2.30;;;;;;;9.97;100.00;100785.94;5043881;28;20119;-92
2023/12/23 10:16:59;;;;;;;9.30;2.17;;;;;;;9.85;100.00;100768.22;5056700;28;20032;-93
2023/12/23 10:19:24;;;;;;;9.10;2.25;;;;;;;9.97;100.00;100788.56;5056577;28;20465;-93
2023/12/23 10:21:51;;;;;;;7.90;2.38;;;;;;;9.97;100.00;100780.66;5073731;28;20460;-92
2023/12/23 10:24:16;;;;;;;8.45;2.58;;;;;;;9.80;100.00;100756.69;5057921;28;20025;-90
2023/12/23 10:26:42;;;;;;;14.10;2.45;;;;;;;10.03;100.00;100770.19;5073617;28;20376;-94
2023/12/23 10:29:10;;;;;;;10.40;2.50;;;;;;;9.99;100.00;100763.09;5056414;28;20485;-92
2023/12/23 10:31:37;;;;;;;9.63;2.78;;;;;;;10.00;100.00;100751.66;5074686;28;20029;-90
2023/12/23 10:34:08;;;;;;;8.82;2.50;;;;;;;10.05;100.00;100760.50;5060121;28;20068;-94
2023/12/23 10:36:34;;;;;;;10.52;2.42;;;;;;;10.17;100.00;100773.84;5057020;28;20047;-93
2023/12/23 10:39:19;;;;;;;9.77;2.33;;;;;;;10.20;100.00;100765.09;5073974;28;20034;-90
2023/12/23 10:41:45;;;;;;;9.90;2.40;;;;;;;10.24;100.00;100778.38;5074209;28;20056;-90
2023/12/23 10:44:11;;;;;;;8.15;2.22;;;;;;;10.28;100.00;100780.19;5055717;28;20605;-90
2023/12/23 10:46:36;;;;;;;9.48;2.20;;;;;;;10.25;100.00;100776.63;5055776;28;20147;-89
2023/12/23 10:49:03;;;;;;;9.55;2.30;;;;;;;10.21;100.00;100756.28;5073337;28;20020;-89
2023/12/23 10:51:29;;;;;;;8.45;2.25;;;;;;;10.33;100.00;100761.75;5038524;28;20488;-87
2023/12/23 10:53:58;;;;;;;8.60;2.47;;;;;;;10.35;100.00;100757.34;5073244;28;20025;-88
2023/12/23 10:56:29;;;;;;;7.28;2.00;;;;;;;10.38;100.00;100746.81;5072883;28;20036;-89
2023/12/23 10:58:55;;;;;;;10.15;2.78;;;;;;;10.32;100.00;100733.56;5073140;28;20032;-90
2023/12/23 11:01:27;;;;;;;9.57;2.40;;;;;;;10.31;100.00;100744.97;5054864;28;20061;-89
2023/12/23 11:03:54;;;;;;;8.70;2.30;;;;;;;10.41;100.00;100748.63;5073475;28;20051;-89
2023/12/23 11:06:21;;;;;;;9.93;2.22;;;;;;;10.50;100.00;100765.44;5055799;28;20476;-89
2023/12/23 11:08:49;;;;;;;8.32;2.70;;;;;;;10.48;100.00;100747.78;5072758;28;20025;-88
2023/12/23 11:11:16;;;;;;;7.72;2.33;;;;;;;10.52;100.00;100755.75;5072986;28;20082;-90
2023/12/23 11:13:42;;;;;;;8.73;2.20;;;;;;;10.62;99.27;100750.53;5056724;28;20097;-88
2023/12/23 11:16:10;;;;;;;5.80;2.00;;;;;;;10.65;99.32;100771.72;5073912;28;20384;-87